McClure, South Dakota
Current Conditions -  °F | °C
As of 8:53 AM on Wednesday 22 Oct 2014 (Local Time) from KPIR Reporting Station
Overcast Overcast  
Wind Chill: 60°   Ceiling: 10000
Heat Index: 60°   Visibility: 10mi
Dew Point: 45°   Wind: 23mph
Humidity: 57%   Direction: 320°NW
Pressure: 29.84"   Gusts: NA
Location:  44.0206°N, 100.306°W
Report Text: KPIR 221353Z AUTO 32020KT 10SM FEW075 OVC100 16/07 A2984 RMK AO2 PK WND 31028/1314 SLP096 T01560072
Loading
Personal Weather Stations






























Interactive Weather Map
Tropical Storm Tracking
New forecast layout! Learn more

10-Day Weather Forecast

Advertisements
Track Severe Weather on mobile